createdAt,value
2022-12-08T00:02:46.521Z,45.56
2022-12-08T00:08:07.232Z,45.62
2022-12-08T00:13:13.914Z,45.73
2022-12-08T00:18:15.436Z,45.66
2022-12-08T00:23:17.045Z,45.70
2022-12-08T00:28:18.609Z,45.78
2022-12-08T00:33:20.244Z,45.74
2022-12-08T00:38:21.791Z,45.72
2022-12-08T00:43:23.353Z,45.67
2022-12-08T00:48:24.986Z,45.97
2022-12-08T00:53:26.541Z,45.88
2022-12-08T00:58:28.761Z,45.93
2022-12-08T01:03:30.329Z,45.99
2022-12-08T01:08:32.505Z,45.99
2022-12-08T01:13:34.304Z,46.03
2022-12-08T01:18:36.770Z,45.94
2022-12-08T01:23:38.382Z,45.97
2022-12-08T01:28:40.917Z,45.85
2022-12-08T01:33:43.656Z,45.95
2022-12-08T01:38:45.262Z,45.89
2022-12-08T01:44:00.842Z,45.82
2022-12-08T01:49:08.371Z,45.72
2022-12-08T01:54:10.987Z,45.66
2022-12-08T01:59:13.102Z,45.62
2022-12-08T02:04:14.809Z,45.65
2022-12-08T02:09:16.581Z,45.63
2022-12-08T02:14:18.181Z,45.48
2022-12-08T02:20:04.545Z,45.49
2022-12-08T02:25:20.485Z,45.58
2022-12-08T02:30:35.818Z,45.58
2022-12-08T02:35:54.527Z,45.64
2022-12-08T02:41:24.752Z,45.52
2022-12-08T02:46:34.589Z,45.63
2022-12-08T02:51:36.204Z,45.59
2022-12-08T02:56:50.719Z,45.76
2022-12-08T03:02:18.038Z,45.70
2022-12-08T03:07:32.018Z,45.82
2022-12-08T03:12:43.580Z,45.64
2022-12-08T03:17:56.754Z,45.71
2022-12-08T03:23:00.672Z,45.72
2022-12-08T03:28:02.891Z,45.60
2022-12-08T03:33:18.006Z,45.68
2022-12-08T03:38:19.875Z,45.52
2022-12-08T03:43:21.476Z,45.52
2022-12-08T03:48:23.013Z,45.61
2022-12-08T03:53:24.622Z,45.51
2022-12-08T03:58:26.169Z,45.50
2022-12-08T04:03:27.751Z,45.54
2022-12-08T04:08:29.339Z,45.43
2022-12-08T04:13:31.217Z,45.42
2022-12-08T04:18:34.520Z,45.57
2022-12-08T04:23:36.128Z,45.47
2022-12-08T04:28:37.755Z,45.44
2022-12-08T04:33:39.268Z,45.43
2022-12-08T04:38:40.880Z,45.37
2022-12-08T04:43:44.318Z,45.44
2022-12-08T04:48:45.989Z,45.31
2022-12-08T04:53:47.719Z,45.41
2022-12-08T04:58:49.588Z,45.29
2022-12-08T05:03:51.131Z,45.31
2022-12-08T05:08:52.840Z,45.42
2022-12-08T05:13:54.679Z,45.42
2022-12-08T05:18:56.381Z,45.35
2022-12-08T05:23:58.201Z,45.39
2022-12-08T05:28:59.986Z,45.35
2022-12-08T05:34:03.364Z,45.26
2022-12-08T05:39:05.623Z,45.30
2022-12-08T05:44:07.347Z,45.20
2022-12-08T05:49:09.025Z,45.29
2022-12-08T05:54:10.676Z,45.29
2022-12-08T05:59:12.406Z,45.34
2022-12-08T06:04:14.145Z,45.24
2022-12-08T06:09:15.838Z,45.24
2022-12-08T06:14:17.506Z,45.36
2022-12-08T06:19:19.325Z,45.30
2022-12-08T06:24:20.917Z,45.28
2022-12-08T06:29:22.757Z,45.20
2022-12-08T06:34:24.582Z,45.16
2022-12-08T06:39:26.293Z,45.06
2022-12-08T06:44:27.985Z,44.99
2022-12-08T06:49:29.617Z,44.91
2022-12-08T06:54:31.277Z,44.84
2022-12-08T06:59:32.972Z,44.86
2022-12-08T07:04:34.621Z,44.75
2022-12-08T07:09:36.931Z,44.65
2022-12-08T07:14:38.785Z,44.56
2022-12-08T07:19:40.589Z,44.45
2022-12-08T07:24:42.285Z,43.99
2022-12-08T07:29:43.935Z,43.79
2022-12-08T07:34:47.224Z,44.33
2022-12-08T07:39:49.357Z,44.33
2022-12-08T07:44:51.367Z,44.41
2022-12-08T07:49:53.185Z,44.40
2022-12-08T07:54:55.040Z,44.48
2022-12-08T07:59:56.671Z,44.52
2022-12-08T08:04:58.537Z,44.39
2022-12-08T08:10:00.349Z,44.50
2022-12-08T08:15:02.699Z,44.35
2022-12-08T08:20:07.216Z,44.13
2022-12-08T08:25:09.278Z,44.05
2022-12-08T08:30:16.557Z,44.13
2022-12-08T08:35:20.022Z,43.88
2022-12-08T08:40:21.712Z,43.59
2022-12-08T08:45:23.335Z,43.55
2022-12-08T08:50:25.171Z,43.48
2022-12-08T08:55:26.930Z,43.24
2022-12-08T09:00:30.190Z,42.80
2022-12-08T09:05:32.018Z,42.51
2022-12-08T09:10:33.543Z,42.06
2022-12-08T09:15:35.471Z,41.89
2022-12-08T09:20:37.505Z,41.64
2022-12-08T09:25:39.210Z,41.30
2022-12-08T09:30:41.050Z,40.98
2022-12-08T09:35:42.721Z,40.48
2022-12-08T09:40:54.048Z,40.48
2022-12-08T09:45:56.072Z,40.38
2022-12-08T09:50:58.376Z,40.11
2022-12-08T09:56:06.432Z,40.01
2022-12-08T10:01:12.272Z,39.92
2022-12-08T10:06:49.892Z,39.70
2022-12-08T10:11:55.768Z,39.45
2022-12-08T10:17:02.328Z,39.35
2022-12-08T10:22:14.201Z,39.33
2022-12-08T10:27:15.957Z,39.44
2022-12-08T10:32:19.099Z,38.82
2022-12-08T10:37:20.840Z,38.52
2022-12-08T10:42:22.621Z,38.75
2022-12-08T10:47:25.952Z,38.97
2022-12-08T10:52:27.906Z,39.07
2022-12-08T10:57:29.656Z,38.68
2022-12-08T11:02:31.452Z,38.98
2022-12-08T11:07:33.889Z,39.32
2022-12-08T11:12:36.782Z,39.56
2022-12-08T11:17:41.633Z,39.87
2022-12-08T11:22:45.199Z,40.13
2022-12-08T11:27:48.909Z,40.34
2022-12-08T11:32:56.160Z,40.46
2022-12-08T11:38:13.660Z,40.31
2022-12-08T11:43:31.410Z,40.53
2022-12-08T11:48:36.463Z,40.54
2022-12-08T11:53:38.114Z,40.46
2022-12-08T11:58:49.815Z,40.85
2022-12-08T12:04:01.931Z,41.01
2022-12-08T12:09:22.762Z,41.04
2022-12-08T12:14:41.839Z,41.13
2022-12-08T12:19:43.909Z,41.10
2022-12-08T12:24:47.798Z,41.40
2022-12-08T12:30:00.037Z,42.03
2022-12-08T12:35:01.803Z,42.35
2022-12-08T12:40:07.605Z,42.55
2022-12-08T12:45:22.003Z,42.75
2022-12-08T12:50:34.254Z,42.99
2022-12-08T12:55:45.468Z,43.30
2022-12-08T13:00:47.425Z,43.27
2022-12-08T13:05:51.443Z,43.54
2022-12-08T13:11:19.790Z,43.75
2022-12-08T13:16:24.184Z,43.85
2022-12-08T13:21:33.154Z,44.12
2022-12-08T13:26:43.218Z,44.07
2022-12-08T13:31:52.017Z,44.21
2022-12-08T13:36:59.658Z,44.37
2022-12-08T13:42:20.609Z,44.39
2022-12-08T13:47:33.874Z,44.53
2022-12-08T13:58:24.270Z,44.86
2022-12-08T14:03:26.264Z,44.82
2022-12-08T14:08:58.821Z,45.02
2022-12-08T14:13:54.215Z,45.17
2022-12-08T14:19:03.151Z,45.28
2022-12-08T14:24:04.947Z,45.30
2022-12-08T14:29:07.722Z,45.35
2022-12-08T14:34:10.693Z,45.45
2022-12-08T14:39:12.483Z,45.39
2022-12-08T14:44:24.506Z,45.43
2022-12-08T14:49:34.132Z,45.46
2022-12-08T14:54:35.926Z,45.48
2022-12-08T14:59:39.043Z,45.51
2022-12-08T15:04:42.527Z,45.66
2022-12-08T15:09:45.899Z,45.84
2022-12-08T15:14:55.261Z,45.75
2022-12-08T15:19:58.067Z,45.64
2022-12-08T15:25:00.636Z,45.83
2022-12-08T15:30:02.655Z,45.59
2022-12-08T15:35:04.850Z,45.71
2022-12-08T15:40:07.600Z,45.80
2022-12-08T15:45:16.758Z,45.94
2022-12-08T15:50:20.130Z,45.91
2022-12-08T15:55:22.042Z,45.97
2022-12-08T16:00:51.330Z,45.66
2022-12-08T16:06:10.267Z,45.88
2022-12-08T16:12:04.039Z,46.03
2022-12-08T16:16:51.279Z,46.10
2022-12-08T16:22:30.192Z,46.21
2022-12-08T16:27:59.172Z,46.20
2022-12-08T16:32:41.560Z,46.12
2022-12-08T16:37:43.406Z,46.26
2022-12-08T16:42:47.725Z,46.38
2022-12-08T16:47:50.957Z,46.64
2022-12-08T16:52:57.493Z,46.70
2022-12-08T16:57:59.501Z,46.67
2022-12-08T17:03:01.425Z,46.47
2022-12-08T17:08:03.164Z,46.56
2022-12-08T17:13:05.121Z,46.66
2022-12-08T17:18:06.879Z,46.80
2022-12-08T17:23:08.685Z,46.46
2022-12-08T17:28:10.338Z,46.55
2022-12-08T17:33:12.106Z,46.60
2022-12-08T17:38:13.796Z,46.31
2022-12-08T17:43:15.642Z,46.35
2022-12-08T17:48:17.382Z,46.25
2022-12-08T17:53:19.451Z,46.49
2022-12-08T17:58:21.665Z,46.64
2022-12-08T18:03:23.904Z,46.30
2022-12-08T18:08:26.130Z,46.19
2022-12-08T18:13:27.975Z,46.44
2022-12-08T18:18:29.721Z,46.29
2022-12-08T18:23:31.655Z,46.01
2022-12-08T18:28:33.384Z,45.92
2022-12-08T18:33:35.209Z,46.30
2022-12-08T18:38:37.634Z,46.56
2022-12-08T18:43:46.946Z,46.68
2022-12-08T18:48:49.652Z,46.38
2022-12-08T18:53:51.860Z,46.38
2022-12-08T18:58:58.438Z,46.35
2022-12-08T19:09:29.093Z,46.29
2022-12-08T19:14:32.448Z,46.35
2022-12-08T19:19:34.917Z,46.17
2022-12-08T19:24:36.746Z,46.30
2022-12-08T19:29:39.032Z,46.34
2022-12-08T19:34:41.355Z,46.68
2022-12-08T19:40:01.930Z,46.69
2022-12-08T19:45:11.092Z,46.37
2022-12-08T19:50:32.552Z,46.45
2022-12-08T19:55:34.478Z,46.74
2022-12-08T20:00:37.418Z,46.61
2022-12-08T20:05:40.004Z,46.42
2022-12-08T20:10:42.901Z,46.31
2022-12-08T20:15:45.125Z,46.10
2022-12-08T20:20:47.435Z,46.29
2022-12-08T20:25:49.228Z,46.06
2022-12-08T20:30:51.989Z,46.19
2022-12-08T20:36:01.253Z,46.20
2022-12-08T20:41:02.953Z,45.77
2022-12-08T20:46:05.704Z,45.93
2022-12-08T20:51:07.643Z,45.92
2022-12-08T20:56:13.730Z,45.98
2022-12-08T21:01:17.053Z,46.07
2022-12-08T21:06:23.650Z,45.99
2022-12-08T21:11:25.612Z,45.96
2022-12-08T21:16:27.611Z,46.04
2022-12-08T21:21:30.003Z,45.83
2022-12-08T21:26:32.458Z,45.53
2022-12-08T21:31:36.298Z,45.56
2022-12-08T21:36:38.481Z,45.63
2022-12-08T21:41:59.133Z,45.74
2022-12-08T21:47:01.315Z,45.76
2022-12-08T21:52:03.356Z,45.68
2022-12-08T21:57:05.309Z,45.64
2022-12-08T22:02:10.013Z,45.57
2022-12-08T22:07:12.009Z,45.71
2022-12-08T22:12:17.308Z,45.61
2022-12-08T22:17:19.874Z,45.61
2022-12-08T22:22:22.261Z,45.58
2022-12-08T22:27:24.165Z,45.64
2022-12-08T22:32:26.558Z,45.73
2022-12-08T22:37:28.593Z,45.90
2022-12-08T22:42:30.396Z,45.89
2022-12-08T22:47:32.306Z,45.85
2022-12-08T22:52:34.159Z,45.81
2022-12-08T22:57:36.012Z,45.81
2022-12-08T23:02:37.936Z,45.65
2022-12-08T23:07:40.313Z,45.81
2022-12-08T23:12:42.191Z,46.00
2022-12-08T23:17:44.018Z,46.05
2022-12-08T23:22:45.903Z,45.95
2022-12-08T23:27:47.621Z,45.86
2022-12-08T23:32:49.458Z,45.47
2022-12-08T23:37:53.367Z,45.87
2022-12-08T23:42:54.969Z,45.80
2022-12-08T23:47:56.588Z,45.73
2022-12-08T23:52:58.249Z,45.73
2022-12-08T23:57:59.988Z,45.72
